createdAt,value
2018-08-23T00:01:33.775Z,32.15
2018-08-23T00:04:07.677Z,33.30
2018-08-23T00:06:37.246Z,32.78
2018-08-23T00:09:08.522Z,32.65
2018-08-23T00:11:41.090Z,34.63
2018-08-23T00:14:10.349Z,34.33
2018-08-23T00:16:46.939Z,34.18
2018-08-23T00:19:16.475Z,34.78
2018-08-23T00:21:48.072Z,34.10
2018-08-23T00:24:24.144Z,36.83
2018-08-23T00:26:57.448Z,34.33
2018-08-23T00:29:28.236Z,35.25
2018-08-23T00:32:02.499Z,31.57
2018-08-23T00:34:32.307Z,34.63
2018-08-23T00:37:01.826Z,35.70
2018-08-23T00:39:30.573Z,34.75
2018-08-23T00:42:04.397Z,33.70
2018-08-23T00:44:48.112Z,35.10
2018-08-23T00:47:17.535Z,34.20
2018-08-23T00:49:46.052Z,33.38
2018-08-23T00:52:17.674Z,34.90
2018-08-23T00:54:52.979Z,35.75
2018-08-23T00:57:21.578Z,35.68
2018-08-23T00:59:55.180Z,33.48
2018-08-23T01:02:23.720Z,35.25
2018-08-23T01:04:52.459Z,35.55
2018-08-23T01:07:22.741Z,35.03
2018-08-23T01:09:51.230Z,35.45
2018-08-23T01:12:20.669Z,35.80
2018-08-23T01:14:51.976Z,36.73
2018-08-23T01:17:20.634Z,35.38
2018-08-23T01:19:59.298Z,35.80
2018-08-23T01:22:27.773Z,36.77
2018-08-23T01:24:56.901Z,35.13
2018-08-23T01:27:30.695Z,35.65
2018-08-23T01:29:59.303Z,36.13
2018-08-23T01:32:30.952Z,36.50
2018-08-23T01:34:59.476Z,37.80
2018-08-23T01:37:36.942Z,35.52
2018-08-23T01:40:08.404Z,35.98
2018-08-23T01:42:38.842Z,34.73
2018-08-23T01:45:08.994Z,37.88
2018-08-23T01:47:55.717Z,36.20
2018-08-23T01:50:25.082Z,34.80
2018-08-23T01:52:54.654Z,36.80
2018-08-23T01:55:24.161Z,36.53
2018-08-23T01:57:53.040Z,37.05
2018-08-23T02:00:23.129Z,37.63
2018-08-23T02:02:51.682Z,34.43
2018-08-23T02:05:20.190Z,35.87
2018-08-23T02:07:48.969Z,35.10
2018-08-23T02:10:17.687Z,35.67
2018-08-23T02:12:57.593Z,35.30
2018-08-23T02:15:26.559Z,34.88
2018-08-23T02:17:59.169Z,36.05
2018-08-23T02:20:28.557Z,35.83
2018-08-23T02:22:57.163Z,36.70
2018-08-23T02:25:25.949Z,35.33
2018-08-23T02:28:03.790Z,35.48
2018-08-23T02:30:44.551Z,36.40
2018-08-23T02:33:13.940Z,37.13
2018-08-23T02:36:05.754Z,37.65
2018-08-23T02:38:35.353Z,36.23
2018-08-23T02:41:04.039Z,38.25
2018-08-23T02:43:32.833Z,36.33
2018-08-23T02:46:03.838Z,39.58
2018-08-23T02:48:32.300Z,40.52
2018-08-23T02:51:01.584Z,38.97
2018-08-23T02:53:39.257Z,40.30
2018-08-23T02:56:10.443Z,40.28
2018-08-23T02:58:48.095Z,37.33
2018-08-23T03:01:16.864Z,38.70
2018-08-23T03:04:02.891Z,39.55
2018-08-23T03:06:36.819Z,39.92
2018-08-23T03:09:07.461Z,39.88
2018-08-23T03:11:37.421Z,39.63
2018-08-23T03:14:06.447Z,37.90
2018-08-23T03:16:48.484Z,38.65
2018-08-23T03:19:17.318Z,39.25
2018-08-23T03:21:46.559Z,39.75
2018-08-23T03:24:20.923Z,39.38
2018-08-23T03:26:49.774Z,40.73
2018-08-23T03:29:18.570Z,40.12
2018-08-23T03:31:47.162Z,41.95
2018-08-23T03:34:16.107Z,41.90
2018-08-23T03:36:44.577Z,40.75
2018-08-23T03:39:14.283Z,41.13
2018-08-23T03:41:43.227Z,39.48
2018-08-23T03:44:22.597Z,41.02
2018-08-23T03:46:53.955Z,41.23
2018-08-23T03:49:36.377Z,39.35
2018-08-23T03:52:05.061Z,41.45
2018-08-23T03:54:33.932Z,40.88
2018-08-23T03:57:17.666Z,42.83
2018-08-23T03:59:47.779Z,40.92
2018-08-23T04:02:17.593Z,40.75
2018-08-23T04:04:48.178Z,46.30
2018-08-23T04:07:16.945Z,45.33
2018-08-23T04:09:46.073Z,42.17
2018-08-23T04:12:14.997Z,44.27
2018-08-23T04:14:43.994Z,45.05
2018-08-23T04:17:12.721Z,46.33
2018-08-23T04:19:46.640Z,45.88
2018-08-23T04:22:15.439Z,45.00
2018-08-23T04:24:49.281Z,46.85
2018-08-23T04:27:19.496Z,47.00
2018-08-23T04:29:49.213Z,47.60
2018-08-23T04:32:26.590Z,46.70
2018-08-23T04:34:55.876Z,49.48
2018-08-23T04:37:24.799Z,50.38
2018-08-23T04:40:05.878Z,45.70
2018-08-23T04:42:34.912Z,49.93
2018-08-23T04:45:13.222Z,48.85
2018-08-23T04:47:50.576Z,51.00
2018-08-23T04:50:19.776Z,52.43
2018-08-23T04:52:48.704Z,48.55
2018-08-23T04:55:17.912Z,51.00
2018-08-23T04:57:46.619Z,51.37
2018-08-23T05:00:15.582Z,47.37
2018-08-23T05:02:44.523Z,50.28
2018-08-23T05:05:13.756Z,49.30
2018-08-23T05:07:42.520Z,50.83
2018-08-23T05:10:11.612Z,47.90
2018-08-23T05:12:41.114Z,53.48
2018-08-23T05:15:11.472Z,51.08
2018-08-23T05:17:40.696Z,51.37
2018-08-23T05:20:09.907Z,51.75
2018-08-23T05:22:39.831Z,50.15
2018-08-23T05:25:16.832Z,49.27
2018-08-23T05:28:01.830Z,49.13
2018-08-23T05:30:31.571Z,51.42
2018-08-23T05:33:05.888Z,50.55
2018-08-23T05:35:34.766Z,51.05
2018-08-23T05:38:03.507Z,50.15
2018-08-23T05:40:37.285Z,54.73
2018-08-23T05:43:05.963Z,53.33
2018-08-23T05:45:40.431Z,52.98
2018-08-23T05:48:21.332Z,54.50
2018-08-23T05:50:50.161Z,51.63
2018-08-23T05:53:19.797Z,50.92
2018-08-23T05:55:51.253Z,49.38
2018-08-23T05:58:24.659Z,47.62
2018-08-23T06:00:54.475Z,59.03
2018-08-23T06:03:23.124Z,65.17
2018-08-23T06:05:52.179Z,51.73
2018-08-23T06:08:21.008Z,52.90
2018-08-23T06:10:52.465Z,55.60
2018-08-23T06:13:21.369Z,65.57
2018-08-23T06:15:52.749Z,56.55
2018-08-23T06:18:22.141Z,57.78
2018-08-23T06:20:51.762Z,52.55
2018-08-23T06:23:21.129Z,51.75
2018-08-23T06:25:50.362Z,50.92
2018-08-23T06:28:22.132Z,55.38
2018-08-23T06:30:50.958Z,57.73
2018-08-23T06:34:01.146Z,56.15
2018-08-23T06:36:32.257Z,55.15
2018-08-23T06:39:01.020Z,57.27
2018-08-23T06:41:30.232Z,56.60
2018-08-23T06:44:00.043Z,56.73
2018-08-23T06:46:28.900Z,64.77
2018-08-23T06:48:57.916Z,79.47
2018-08-23T06:51:26.841Z,64.85
2018-08-23T06:53:59.829Z,56.15
2018-08-23T06:56:28.722Z,57.65
2018-08-23T06:58:58.123Z,54.38
2018-08-23T07:01:36.209Z,55.35
2018-08-23T07:04:09.264Z,57.73
2018-08-23T07:06:38.533Z,53.95
2018-08-23T07:09:10.836Z,52.40
2018-08-23T07:11:40.450Z,51.90
2018-08-23T07:14:16.206Z,51.37
2018-08-23T07:16:46.426Z,50.05
2018-08-23T07:19:26.730Z,46.53
2018-08-23T07:21:56.129Z,47.43
2018-08-23T07:24:53.920Z,45.00
2018-08-23T07:27:23.450Z,45.48
2018-08-23T07:29:54.604Z,45.33
2018-08-23T07:32:27.973Z,45.58
2018-08-23T07:35:08.465Z,44.63
2018-08-23T07:37:38.699Z,43.60
2018-08-23T07:40:10.238Z,41.75
2018-08-23T07:42:40.088Z,40.88
2018-08-23T07:45:09.525Z,38.88
2018-08-23T07:47:41.201Z,41.15
2018-08-23T07:50:10.219Z,40.25
2018-08-23T07:52:41.617Z,40.52
2018-08-23T07:55:10.429Z,41.10
2018-08-23T07:57:39.885Z,37.35
2018-08-23T08:00:41.616Z,37.00
2018-08-23T08:03:12.115Z,34.45
2018-08-23T08:05:45.915Z,35.48
2018-08-23T08:08:14.867Z,33.35
2018-08-23T08:10:45.543Z,32.83
2018-08-23T08:13:14.401Z,32.25
2018-08-23T08:15:43.322Z,31.33
2018-08-23T08:18:17.610Z,31.70
2018-08-23T08:20:52.818Z,31.00
2018-08-23T08:23:21.664Z,28.92
2018-08-23T08:25:50.969Z,29.90
2018-08-23T08:28:20.041Z,27.13
2018-08-23T08:30:53.261Z,28.20
2018-08-23T08:33:23.096Z,28.00
2018-08-23T08:35:55.910Z,29.42
2018-08-23T08:38:25.165Z,29.32
2018-08-23T08:40:55.095Z,28.80
2018-08-23T08:43:24.233Z,27.42
2018-08-23T08:45:59.147Z,25.08
2018-08-23T08:48:30.835Z,26.93
2018-08-23T08:51:17.090Z,25.15
2018-08-23T08:53:46.436Z,26.50
2018-08-23T08:56:15.614Z,24.95
2018-08-23T08:58:44.536Z,25.80
2018-08-23T09:01:13.297Z,25.00
2018-08-23T09:03:42.219Z,22.55
2018-08-23T09:06:11.880Z,22.17
2018-08-23T09:08:40.646Z,22.60
2018-08-23T09:11:09.451Z,21.65
2018-08-23T09:13:43.629Z,21.17
2018-08-23T09:16:13.165Z,22.15
2018-08-23T09:18:45.825Z,21.48
2018-08-23T09:21:14.989Z,19.80
2018-08-23T09:23:44.033Z,20.75
2018-08-23T09:26:12.711Z,19.60
2018-08-23T09:28:41.350Z,19.15
2018-08-23T09:31:10.743Z,18.10
2018-08-23T09:33:39.392Z,15.55
2018-08-23T09:36:08.097Z,15.63
2018-08-23T09:38:36.976Z,14.65
2018-08-23T09:41:05.803Z,15.32
2018-08-23T09:43:34.749Z,17.37
2018-08-23T09:46:03.777Z,15.58
2018-08-23T09:48:32.558Z,13.53
2018-08-23T09:51:01.397Z,11.35
2018-08-23T09:53:30.783Z,12.80
2018-08-23T09:55:59.555Z,12.53
2018-08-23T09:58:34.143Z,13.65
2018-08-23T10:01:08.166Z,11.20
2018-08-23T10:03:42.142Z,11.60
2018-08-23T10:06:16.237Z,10.60
2018-08-23T10:08:51.254Z,11.30
2018-08-23T10:11:25.308Z,11.70
2018-08-23T10:13:59.447Z,10.65
2018-08-23T10:16:33.532Z,12.33
2018-08-23T10:19:07.441Z,12.25
2018-08-23T10:21:41.512Z,12.47
2018-08-23T10:24:16.865Z,15.28
2018-08-23T10:26:46.030Z,12.98
2018-08-23T10:29:15.122Z,15.15
2018-08-23T10:31:43.879Z,15.85
2018-08-23T10:34:13.526Z,14.55
2018-08-23T10:36:42.257Z,11.10
2018-08-23T10:39:13.516Z,11.08
2018-08-23T10:41:43.011Z,10.93
2018-08-23T10:44:12.337Z,11.15
2018-08-23T10:46:46.237Z,12.93
2018-08-23T10:49:15.873Z,12.63
2018-08-23T10:51:44.678Z,10.98
2018-08-23T10:54:13.917Z,11.73
2018-08-23T10:56:42.897Z,10.72
2018-08-23T10:59:11.881Z,11.12
2018-08-23T11:01:41.449Z,11.68
2018-08-23T11:04:11.015Z,10.82
2018-08-23T11:06:45.192Z,11.80
2018-08-23T11:09:19.024Z,10.55
2018-08-23T11:11:50.797Z,12.55
2018-08-23T11:14:24.692Z,13.30
2018-08-23T11:16:59.421Z,13.35
2018-08-23T11:19:33.181Z,13.05
2018-08-23T11:22:02.437Z,12.80
2018-08-23T11:24:32.162Z,13.85
2018-08-23T11:27:00.950Z,14.00
2018-08-23T11:29:29.980Z,12.95
2018-08-23T11:31:58.727Z,12.20
2018-08-23T11:34:34.079Z,11.63
2018-08-23T11:37:02.866Z,11.93
2018-08-23T11:39:32.214Z,12.63
2018-08-23T11:42:01.080Z,15.58
2018-08-23T11:44:29.861Z,14.25
2018-08-23T11:46:58.590Z,12.00
2018-08-23T11:49:27.411Z,12.63
2018-08-23T11:51:56.220Z,11.13
2018-08-23T11:54:24.877Z,10.40
2018-08-23T11:56:53.666Z,10.28
2018-08-23T11:59:22.594Z,8.73
2018-08-23T12:01:51.817Z,8.50
2018-08-23T12:04:20.968Z,9.85
2018-08-23T12:06:53.877Z,8.98
2018-08-23T12:09:26.858Z,8.58
2018-08-23T12:11:55.964Z,9.50
2018-08-23T12:14:25.348Z,8.95
2018-08-23T12:16:54.421Z,10.13
2018-08-23T12:19:23.949Z,10.60
2018-08-23T12:21:53.187Z,11.15
2018-08-23T12:24:22.255Z,10.55
2018-08-23T12:26:51.314Z,10.13
2018-08-23T12:29:20.088Z,9.98
2018-08-23T12:31:49.037Z,9.43
2018-08-23T12:34:28.652Z,10.20
2018-08-23T12:37:02.751Z,9.88
2018-08-23T12:39:36.705Z,10.20
2018-08-23T12:42:11.621Z,13.90
2018-08-23T12:44:54.010Z,13.55
2018-08-23T12:47:23.355Z,13.10
2018-08-23T12:49:52.507Z,13.28
2018-08-23T12:52:21.321Z,11.75
2018-08-23T12:54:50.170Z,13.20
2018-08-23T12:57:19.829Z,11.33
2018-08-23T12:59:48.685Z,13.25
2018-08-23T13:02:17.703Z,12.07
2018-08-23T13:04:46.749Z,12.63
2018-08-23T13:07:15.649Z,13.93
2018-08-23T13:09:44.821Z,13.68
2018-08-23T13:12:13.891Z,11.93
2018-08-23T13:14:42.465Z,13.18
2018-08-23T13:17:12.563Z,12.68
2018-08-23T13:19:41.508Z,15.55
2018-08-23T13:22:10.172Z,13.20
2018-08-23T13:24:49.512Z,12.68
2018-08-23T13:27:18.281Z,14.47
2018-08-23T13:29:47.724Z,13.80
2018-08-23T13:32:17.249Z,13.83
2018-08-23T13:34:46.278Z,12.10
2018-08-23T13:37:14.927Z,11.97
2018-08-23T13:39:44.403Z,11.28
2018-08-23T13:42:13.197Z,12.68
2018-08-23T13:44:42.351Z,12.47
2018-08-23T13:47:11.361Z,12.18
2018-08-23T13:49:40.524Z,13.05
2018-08-23T13:52:09.548Z,13.85
2018-08-23T13:54:39.364Z,12.33
2018-08-23T13:57:08.213Z,12.77
2018-08-23T13:59:37.583Z,12.37
2018-08-23T14:02:06.683Z,11.90
2018-08-23T14:04:35.459Z,14.30
2018-08-23T14:07:08.668Z,11.28
2018-08-23T14:09:40.639Z,11.20
2018-08-23T14:12:10.058Z,12.30
2018-08-23T14:14:40.079Z,12.88
2018-08-23T14:17:09.119Z,12.30
2018-08-23T14:19:38.214Z,12.68
2018-08-23T14:22:07.224Z,13.20
2018-08-23T14:24:36.325Z,13.22
2018-08-23T14:27:05.191Z,12.23
2018-08-23T14:29:33.910Z,11.93
2018-08-23T14:32:03.189Z,11.50
2018-08-23T14:34:32.102Z,11.08
2018-08-23T14:37:01.922Z,11.03
2018-08-23T14:39:30.673Z,13.18
2018-08-23T14:41:59.716Z,11.97
2018-08-23T14:44:28.550Z,10.93
2018-08-23T14:47:09.456Z,11.05
2018-08-23T14:49:38.521Z,10.80
2018-08-23T14:52:07.368Z,9.40
2018-08-23T14:54:41.606Z,9.10
2018-08-23T14:57:15.794Z,9.90
2018-08-23T14:59:51.164Z,9.60
2018-08-23T15:02:19.935Z,8.90
2018-08-23T15:04:49.362Z,8.73
2018-08-23T15:07:18.502Z,8.40
2018-08-23T15:09:47.540Z,8.30
2018-08-23T15:12:16.333Z,8.68
2018-08-23T15:14:45.106Z,7.42
2018-08-23T15:17:14.121Z,8.70
2018-08-23T15:19:42.955Z,8.48
2018-08-23T15:22:11.852Z,7.40
2018-08-23T15:24:40.894Z,8.05
2018-08-23T15:27:12.712Z,7.58
2018-08-23T15:29:41.796Z,7.80
2018-08-23T15:32:11.299Z,7.37
2018-08-23T15:34:41.020Z,7.47
2018-08-23T15:37:10.105Z,7.78
2018-08-23T15:39:40.673Z,5.70
2018-08-23T15:42:09.670Z,6.50
2018-08-23T15:44:38.408Z,5.70
2018-08-23T15:47:07.122Z,5.83
2018-08-23T15:49:36.484Z,5.55
2018-08-23T15:52:05.368Z,6.47
2018-08-23T15:54:34.388Z,5.17
2018-08-23T15:57:03.079Z,4.87
2018-08-23T15:59:32.941Z,4.08
2018-08-23T16:02:01.899Z,57.80
2018-08-23T16:04:30.782Z,8.00
2018-08-23T16:06:59.568Z,5.10
2018-08-23T16:09:28.822Z,3.62
2018-08-23T16:11:58.013Z,4.03
2018-08-23T16:14:27.118Z,3.98
2018-08-23T16:17:01.233Z,4.60
2018-08-23T16:19:35.068Z,5.17
2018-08-23T16:22:03.986Z,4.50
2018-08-23T16:24:32.791Z,4.08
2018-08-23T16:27:04.686Z,5.08
2018-08-23T16:29:33.301Z,4.37
2018-08-23T16:32:03.125Z,7.95
2018-08-23T16:34:31.684Z,4.50
2018-08-23T16:37:00.601Z,4.28
2018-08-23T16:39:29.322Z,4.60
2018-08-23T16:41:58.235Z,4.60
2018-08-23T16:44:26.983Z,4.42
2018-08-23T16:46:56.860Z,3.55
2018-08-23T16:49:26.007Z,4.08
2018-08-23T16:51:55.003Z,3.92
2018-08-23T16:54:24.184Z,4.03
2018-08-23T16:56:53.178Z,3.72
2018-08-23T16:59:22.088Z,4.30
2018-08-23T17:01:50.927Z,3.83
2018-08-23T17:04:20.137Z,4.45
2018-08-23T17:06:48.966Z,3.83
2018-08-23T17:09:17.821Z,3.85
2018-08-23T17:11:47.039Z,3.50
2018-08-23T17:14:16.370Z,3.67
2018-08-23T17:16:50.283Z,3.60
2018-08-23T17:19:19.329Z,3.37
2018-08-23T17:21:49.027Z,3.70
2018-08-23T17:24:18.545Z,3.05
2018-08-23T17:26:47.601Z,3.27
2018-08-23T17:29:16.570Z,3.37
2018-08-23T17:31:46.413Z,3.27
2018-08-23T17:34:15.704Z,3.02
2018-08-23T17:36:44.501Z,3.10
2018-08-23T17:39:13.165Z,2.25
2018-08-23T17:41:42.635Z,2.70
2018-08-23T17:44:11.553Z,3.50
2018-08-23T17:46:40.386Z,2.77
2018-08-23T17:49:10.113Z,3.45
2018-08-23T17:51:39.254Z,2.17
2018-08-23T17:54:08.241Z,2.22
2018-08-23T17:56:37.073Z,2.62
2018-08-23T17:59:05.928Z,4.42
2018-08-23T18:01:35.065Z,10.30
2018-08-23T18:04:04.642Z,2.40
2018-08-23T18:06:34.010Z,5.12
2018-08-23T18:09:03.072Z,3.60
2018-08-23T18:11:32.209Z,2.60
2018-08-23T18:14:01.615Z,2.58
2018-08-23T18:16:35.733Z,2.10
2018-08-23T18:19:04.958Z,1.98
2018-08-23T18:21:33.895Z,2.20
2018-08-23T18:24:02.861Z,2.30
2018-08-23T18:26:32.080Z,2.05
2018-08-23T18:29:02.116Z,2.50
2018-08-23T18:31:31.351Z,2.37
2018-08-23T18:34:00.407Z,2.40
2018-08-23T18:36:29.592Z,15.10
2018-08-23T18:38:58.566Z,2.30
2018-08-23T18:41:27.615Z,2.85
2018-08-23T18:43:57.031Z,2.47
2018-08-23T18:46:26.327Z,3.17
2018-08-23T18:48:58.584Z,3.65
2018-08-23T18:51:29.558Z,4.40
2018-08-23T18:53:59.151Z,3.75
2018-08-23T18:56:29.242Z,2.37
2018-08-23T18:58:58.665Z,2.35
2018-08-23T19:01:27.403Z,4.33
2018-08-23T19:03:56.396Z,2.40
2018-08-23T19:06:30.445Z,2.15
2018-08-23T19:08:59.427Z,2.40
2018-08-23T19:11:28.081Z,1.90
2018-08-23T19:13:56.821Z,2.30
2018-08-23T19:16:30.672Z,2.67
2018-08-23T19:18:59.868Z,2.25
2018-08-23T19:21:28.716Z,2.20
2018-08-23T19:23:57.602Z,2.00
2018-08-23T19:26:26.369Z,3.02
2018-08-23T19:28:55.770Z,2.37
2018-08-23T19:31:24.646Z,2.70
2018-08-23T19:33:53.528Z,2.50
2018-08-23T19:36:22.111Z,2.30
2018-08-23T19:38:51.262Z,2.12
2018-08-23T19:41:20.587Z,2.00
2018-08-23T19:43:49.206Z,2.30
2018-08-23T19:46:23.212Z,2.22
2018-08-23T19:48:57.269Z,2.15
2018-08-23T19:51:26.757Z,2.58
2018-08-23T19:53:56.258Z,2.10
2018-08-23T19:56:26.152Z,2.20
2018-08-23T19:58:55.185Z,2.37
2018-08-23T20:01:23.848Z,2.33
2018-08-23T20:04:03.178Z,2.27
2018-08-23T20:06:45.774Z,2.58
2018-08-23T20:09:20.306Z,2.40
2018-08-23T20:11:55.541Z,2.62
2018-08-23T20:14:30.978Z,2.60
2018-08-23T20:17:03.796Z,2.30
2018-08-23T20:19:35.337Z,2.67
2018-08-23T20:22:11.972Z,2.80
2018-08-23T20:24:45.373Z,4.90
2018-08-23T20:27:20.376Z,2.60
2018-08-23T20:30:02.952Z,3.95
2018-08-23T20:32:38.006Z,2.87
2018-08-23T20:35:08.280Z,2.47
2018-08-23T20:37:39.608Z,3.10
2018-08-23T20:42:47.498Z,2.77
2018-08-23T20:45:22.236Z,2.80
2018-08-23T20:48:00.535Z,2.75
2018-08-23T20:50:38.256Z,2.85
2018-08-23T20:53:12.525Z,2.50
2018-08-23T20:55:47.448Z,2.45
2018-08-23T20:58:20.342Z,2.50
2018-08-23T21:00:54.174Z,2.47
2018-08-23T21:03:26.173Z,2.42
2018-08-23T21:06:00.676Z,2.20
2018-08-23T21:08:37.395Z,1.98
2018-08-23T21:11:15.281Z,1.98
2018-08-23T21:13:48.106Z,2.30
2018-08-23T21:16:25.395Z,2.02
2018-08-23T21:18:58.300Z,1.50
2018-08-23T21:21:26.975Z,1.70
2018-08-23T21:23:56.231Z,1.90
2018-08-23T21:26:25.068Z,1.60
2018-08-23T21:28:54.649Z,1.60
2018-08-23T21:31:23.260Z,1.82
2018-08-23T21:33:52.052Z,1.42
2018-08-23T21:36:20.837Z,1.75
2018-08-23T21:38:49.900Z,1.72
2018-08-23T21:41:19.567Z,1.55
2018-08-23T21:43:48.265Z,1.67
2018-08-23T21:46:16.829Z,1.67
2018-08-23T21:48:45.441Z,1.20
2018-08-23T21:51:14.381Z,1.30
2018-08-23T21:53:43.674Z,1.40
2018-08-23T21:56:17.748Z,1.25
2018-08-23T21:58:46.378Z,1.30
2018-08-23T22:01:15.999Z,1.75
2018-08-23T22:03:44.650Z,1.57
2018-08-23T22:06:13.377Z,1.57
2018-08-23T22:08:42.423Z,1.45
2018-08-23T22:11:11.032Z,1.77
2018-08-23T22:13:40.181Z,1.35
2018-08-23T22:16:09.217Z,1.10
2018-08-23T22:18:38.642Z,1.40
2018-08-23T22:21:07.265Z,1.50
2018-08-23T22:23:35.910Z,1.52
2018-08-23T22:26:05.263Z,1.30
2018-08-23T22:28:33.926Z,1.30
2018-08-23T22:31:02.479Z,1.15
2018-08-23T22:33:31.313Z,1.20
2018-08-23T22:36:00.734Z,1.27
2018-08-23T22:38:29.689Z,1.25
2018-08-23T22:40:58.570Z,1.40
2018-08-23T22:43:27.218Z,1.55
2018-08-23T22:45:55.970Z,1.50
2018-08-23T22:48:24.668Z,1.50
2018-08-23T22:50:53.865Z,1.40
2018-08-23T22:53:22.381Z,1.20
2018-08-23T22:55:51.089Z,1.37
2018-08-23T22:58:19.868Z,1.27
2018-08-23T23:00:49.204Z,1.30
2018-08-23T23:03:23.266Z,1.35
2018-08-23T23:05:52.676Z,1.27
2018-08-23T23:08:21.201Z,1.20
2018-08-23T23:10:49.846Z,1.32
2018-08-23T23:13:18.813Z,1.02
2018-08-23T23:15:47.397Z,1.00
2018-08-23T23:18:15.993Z,1.07
2018-08-23T23:20:44.864Z,1.00
2018-08-23T23:23:13.524Z,1.27
2018-08-23T23:25:42.197Z,1.22
2018-08-23T23:28:10.747Z,1.10
2018-08-23T23:30:39.325Z,1.02
2018-08-23T23:33:07.885Z,1.27
2018-08-23T23:35:36.513Z,0.80
2018-08-23T23:38:05.876Z,1.10
2018-08-23T23:40:34.482Z,1.45
2018-08-23T23:43:03.288Z,1.00
2018-08-23T23:45:32.001Z,1.30
2018-08-23T23:48:00.773Z,1.25
2018-08-23T23:50:29.875Z,1.10
2018-08-23T23:52:58.650Z,1.22
2018-08-23T23:55:27.501Z,1.30
2018-08-23T23:57:56.337Z,0.85
